Time;durP1;ratioP1;P1;durP2;ratioP2;P2;SDS_P1;SDS_P2;PMS_P1;PMS_P2;Temp;Humidity;BMP_temperature;BMP_pressure;BME280_temperature;BME280_humidity;BME280_pressure;Samples;Min_cycle;Max_cycle;Signal;HPM_P1;HPM_P2
2021/06/17 00:01:13;;;;;;;20.75;13.15;;;;;;;20.10;77.83;98890.56;5093172;28;20036;-92
2021/06/17 00:03:39;;;;;;;20.90;12.63;;;;;;;20.05;77.28;98881.91;5081797;28;20089;-92
2021/06/17 00:06:05;;;;;;;15.80;10.75;;;;;;;20.06;74.93;98884.53;5090053;28;20047;-93
2021/06/17 00:08:32;;;;;;;17.45;10.27;;;;;;;20.14;71.96;98907.47;5087388;28;20063;-92
2021/06/17 00:10:58;;;;;;;15.43;10.43;;;;;;;20.00;72.29;98897.56;5087514;28;20043;-91
2021/06/17 00:13:27;;;;;;;19.83;10.40;;;;;;;19.70;73.03;98891.28;5086646;28;20037;-93
2021/06/17 00:15:56;;;;;;;16.70;10.32;;;;;;;19.76;73.78;98900.84;5081831;28;20087;-92
2021/06/17 00:18:23;;;;;;;20.40;13.05;;;;;;;19.66;79.01;98899.63;5089538;28;20119;-92
2021/06/17 00:20:48;;;;;;;29.13;15.35;;;;;;;19.50;81.50;98902.41;5090650;28;20123;-93
2021/06/17 00:23:17;;;;;;;27.23;16.95;;;;;;;19.37;82.28;98882.56;5086638;28;20064;-93
2021/06/17 00:25:43;;;;;;;25.70;16.30;;;;;;;19.56;82.10;98907.44;5083203;28;20036;-92
2021/06/17 00:28:09;;;;;;;30.55;16.58;;;;;;;19.27;82.49;98871.47;5079555;28;20123;-92
2021/06/17 00:30:35;;;;;;;27.63;16.80;;;;;;;19.33;82.55;98881.88;5087024;28;20044;-93
2021/06/17 00:33:03;;;;;;;27.73;16.10;;;;;;;19.28;83.20;98865.13;5086843;28;20119;-92
2021/06/17 00:35:29;;;;;;;25.13;16.08;;;;;;;19.32;83.11;98858.56;5086080;28;20155;-93
2021/06/17 00:37:56;;;;;;;24.90;15.73;;;;;;;19.50;82.16;98873.59;5085262;28;20082;-93
2021/06/17 00:40:23;;;;;;;22.80;14.43;;;;;;;19.55;80.47;98859.84;5087435;28;20389;-93
2021/06/17 00:42:50;;;;;;;23.70;14.00;;;;;;;19.63;79.53;98875.56;5082035;28;20037;-93
2021/06/17 00:45:20;;;;;;;21.90;13.32;;;;;;;19.36;78.43;98861.94;5086888;28;20131;-92
2021/06/17 00:47:45;;;;;;;20.65;12.50;;;;;;;19.35;77.81;98874.56;5085004;28;20482;-92
2021/06/17 00:50:14;;;;;;;19.08;11.45;;;;;;;19.34;76.29;98875.50;5086450;28;20040;-92
2021/06/17 00:52:40;;;;;;;17.70;11.17;;;;;;;19.22;76.22;98858.25;5084604;28;20052;-93
2021/06/17 00:55:07;;;;;;;21.08;11.70;;;;;;;19.29;76.80;98864.16;5083102;28;20610;-93
2021/06/17 00:57:33;;;;;;;21.05;11.82;;;;;;;19.30;77.11;98857.81;5089938;28;20044;-92
2021/06/17 00:59:58;;;;;;;20.20;11.43;;;;;;;19.31;76.93;98855.97;5084796;28;20389;-92
2021/06/17 01:02:24;;;;;;;20.13;11.43;;;;;;;19.23;77.77;98853.72;5086757;28;20040;-93
2021/06/17 01:04:50;;;;;;;19.60;11.68;;;;;;;19.14;77.64;98846.22;5085177;28;20040;-93
2021/06/17 01:07:28;;;;;;;17.70;10.52;;;;;;;19.17;77.28;98855.00;5086006;28;20099;-92
2021/06/17 01:10:05;;;;;;;18.55;11.77;;;;;;;18.86;79.60;98839.78;5085390;28;20365;-93
2021/06/17 01:12:44;;;;;;;26.27;13.07;;;;;;;18.78;80.47;98832.19;5079880;28;20505;-92
2021/06/17 01:15:15;;;;;;;24.55;12.70;;;;;;;18.82;80.49;98836.44;5084705;28;20048;-93
2021/06/17 01:17:48;;;;;;;20.98;12.55;;;;;;;18.88;80.56;98852.19;5086891;28;20097;-92
2021/06/17 01:20:23;;;;;;;22.98;12.85;;;;;;;18.82;80.25;98832.84;5081123;28;20048;-92
2021/06/17 01:22:53;;;;;;;21.00;12.95;;;;;;;19.01;79.89;98840.69;5079957;28;20052;-91
2021/06/17 01:25:36;;;;;;;23.20;13.38;;;;;;;19.03;79.39;98834.25;5082790;28;20041;-93
2021/06/17 01:28:11;;;;;;;17.90;10.68;;;;;;;19.07;75.64;98835.78;5088776;28;20044;-93
2021/06/17 01:30:56;;;;;;;13.40;8.98;;;;;;;19.06;73.39;98843.97;5085233;28;20036;-92
2021/06/17 01:33:24;;;;;;;15.82;9.50;;;;;;;18.99;73.51;98834.53;5087290;28;20048;-93
2021/06/17 01:35:51;;;;;;;15.68;9.40;;;;;;;18.88;73.76;98845.94;5082380;28;20490;-93
2021/06/17 01:38:20;;;;;;;16.55;9.23;;;;;;;18.84;74.04;98852.47;5085467;28;20063;-92
2021/06/17 01:40:48;;;;;;;17.52;10.57;;;;;;;18.57;76.19;98826.19;5079934;28;20044;-92
2021/06/17 01:43:16;;;;;;;17.10;10.95;;;;;;;18.66;77.99;98855.28;5090890;28;20044;-92
2021/06/17 01:45:44;;;;;;;18.83;11.23;;;;;;;18.58;78.21;98845.91;5080371;28;20048;-92
2021/06/17 01:48:10;;;;;;;21.58;11.60;;;;;;;18.60;78.90;98855.63;5089463;28;20109;-92
2021/06/17 01:50:37;;;;;;;22.88;13.00;;;;;;;18.41;79.32;98817.28;5086646;28;20044;-92
2021/06/17 01:53:04;;;;;;;22.83;12.25;;;;;;;18.50;79.68;98835.59;5085272;28;20093;-92
2021/06/17 01:55:32;;;;;;;20.80;13.07;;;;;;;18.46;80.14;98834.03;5086554;28;20528;-92
2021/06/17 01:58:03;;;;;;;23.15;12.57;;;;;;;18.42;80.81;98824.41;5079695;28;20040;-92
2021/06/17 02:00:32;;;;;;;22.45;13.57;;;;;;;18.51;80.81;98834.63;5085869;28;20048;-92
2021/06/17 02:02:59;;;;;;;25.13;14.13;;;;;;;18.45;81.56;98843.94;5081695;28;20045;-93
2021/06/17 02:05:26;;;;;;;22.42;13.35;;;;;;;18.33;81.69;98831.19;5087558;28;20039;-92
2021/06/17 02:07:52;;;;;;;21.13;13.23;;;;;;;18.35;81.52;98836.50;5087914;28;20047;-92
2021/06/17 02:10:19;;;;;;;22.67;12.93;;;;;;;18.44;81.19;98839.50;5087555;28;20036;-93
2021/06/17 02:12:46;;;;;;;24.10;13.95;;;;;;;18.49;81.48;98844.63;5083437;28;20123;-92
2021/06/17 02:15:13;;;;;;;23.30;14.25;;;;;;;18.44;81.45;98831.44;5083287;28;20401;-93
2021/06/17 02:17:43;;;;;;;21.92;13.10;;;;;;;18.48;81.37;98845.59;5082525;28;20047;-93
2021/06/17 02:20:09;;;;;;;26.25;14.15;;;;;;;18.40;81.73;98831.69;5092350;28;20116;-92
2021/06/17 02:22:40;;;;;;;14.73;9.95;;;;;;;18.36;75.57;98838.22;5085685;28;20089;-92
2021/06/17 02:25:07;;;;;;;18.50;11.18;;;;;;;18.30;77.37;98830.50;5087065;28;20450;-92
2021/06/17 02:27:36;;;;;;;18.48;11.25;;;;;;;18.38;77.98;98849.78;5076037;28;20043;-91
2021/06/17 02:30:07;;;;;;;20.73;11.30;;;;;;;18.32;77.96;98853.66;5088131;28;20370;-92
2021/06/17 02:32:38;;;;;;;18.02;11.52;;;;;;;18.23;78.25;98857.75;5089257;28;20388;-91
2021/06/17 02:35:07;;;;;;;17.90;10.35;;;;;;;18.19;77.83;98860.72;5087855;28;20127;-92
2021/06/17 02:37:35;;;;;;;13.73;9.02;;;;;;;18.10;76.92;98853.16;5080082;28;20717;-91
2021/06/17 02:40:05;;;;;;;18.30;11.60;;;;;;;18.12;79.58;98852.13;5083738;28;20040;-92
2021/06/17 02:42:33;;;;;;;19.88;12.75;;;;;;;18.08;80.59;98847.00;5083172;28;20044;-92
2021/06/17 02:44:59;;;;;;;16.63;10.73;;;;;;;18.14;78.60;98862.81;5082701;28;20467;-93
2021/06/17 02:47:29;;;;;;;13.40;9.20;;;;;;;18.14;74.96;98863.66;5084839;28;20036;-93
2021/06/17 02:49:54;;;;;;;15.95;10.00;;;;;;;18.03;75.13;98853.50;5085799;28;20497;-91
2021/06/17 02:52:22;;;;;;;14.23;9.20;;;;;;;18.02;75.07;98872.41;5084481;28;20098;-92
2021/06/17 02:54:48;;;;;;;13.52;8.93;;;;;;;17.97;75.47;98874.50;5079940;28;20044;-91
2021/06/17 02:57:20;;;;;;;15.15;9.05;;;;;;;17.74;76.22;98870.34;5081790;28;20046;-93
2021/06/17 03:00:07;;;;;;;17.40;10.10;;;;;;;17.51;77.40;98868.94;5082689;28;20564;-93
2021/06/17 03:02:53;;;;;;;15.07;10.07;;;;;;;17.35;78.84;98866.19;5084932;28;20040;-93
2021/06/17 03:05:24;;;;;;;19.65;10.25;;;;;;;17.28;79.16;98854.88;5084999;28;20108;-93
2021/06/17 03:07:58;;;;;;;19.08;9.90;;;;;;;17.33;79.11;98865.41;5084641;28;20039;-92
2021/06/17 03:10:24;;;;;;;17.50;10.68;;;;;;;17.24;79.99;98867.63;5085384;28;20052;-92
2021/06/17 03:12:52;;;;;;;21.30;11.90;;;;;;;17.30;80.80;98882.56;5088948;28;20048;-93
2021/06/17 03:15:19;;;;;;;20.98;12.02;;;;;;;17.25;81.38;98871.19;5084419;28;20516;-93
2021/06/17 03:17:49;;;;;;;21.65;13.30;;;;;;;17.39;81.79;98875.81;5084881;28;20040;-93
2021/06/17 03:20:17;;;;;;;20.50;12.40;;;;;;;17.43;80.98;98880.94;5082782;28;20043;-92
2021/06/17 03:22:48;;;;;;;19.92;12.57;;;;;;;17.47;80.74;98886.19;5080259;28;20060;-92
2021/06/17 03:25:21;;;;;;;19.33;11.88;;;;;;;17.52;80.21;98882.31;5091256;28;20064;-92
2021/06/17 03:27:50;;;;;;;17.05;11.57;;;;;;;17.38;80.00;98869.59;5085104;28;20126;-92
2021/06/17 03:30:20;;;;;;;22.25;11.90;;;;;;;17.42;80.57;98873.84;5085275;28;20042;-92
2021/06/17 03:32:47;;;;;;;19.27;11.25;;;;;;;17.43;79.71;98872.03;5087687;28;20064;-93
2021/06/17 03:35:16;;;;;;;21.00;11.10;;;;;;;17.42;79.59;98871.16;5090272;28;20036;-93
2021/06/17 03:37:42;;;;;;;20.15;12.00;;;;;;;17.52;79.87;98881.41;5084685;28;20040;-93
2021/06/17 03:40:09;;;;;;;18.65;10.82;;;;;;;17.42;78.45;98873.00;5082126;28;20128;-93
2021/06/17 03:42:37;;;;;;;17.67;10.48;;;;;;;17.53;78.28;98886.72;5088882;28;20039;-93
2021/06/17 03:45:04;;;;;;;16.73;9.00;;;;;;;17.38;77.12;98869.59;5083658;28;20040;-92
2021/06/17 03:47:31;;;;;;;18.90;10.88;;;;;;;17.29;76.98;98875.47;5093564;28;20048;-93
2021/06/17 03:49:58;;;;;;;46.03;20.05;;;;;;;17.28;76.37;98879.06;5093390;28;20123;-91
2021/06/17 03:52:25;;;;;;;52.08;22.17;;;;;;;17.30;76.71;98877.19;5086382;28;20047;-93
2021/06/17 03:54:53;;;;;;;32.28;15.23;;;;;;;17.38;77.88;98890.22;5086295;28;20516;-93
2021/06/17 03:57:21;;;;;;;32.67;15.45;;;;;;;17.36;77.63;98887.63;5081587;28;20088;-92
2021/06/17 03:59:52;;;;;;;31.60;14.77;;;;;;;17.30;77.87;98877.19;5081836;28;20040;-92
2021/06/17 04:02:18;;;;;;;24.30;13.30;;;;;;;17.32;78.21;98885.16;5086287;28;20063;-92
2021/06/17 04:04:45;;;;;;;25.67;13.10;;;;;;;17.29;78.39;98872.78;5087564;28;20040;-93
2021/06/17 04:07:19;;;;;;;21.33;12.68;;;;;;;17.42;79.62;98892.66;5082995;28;20588;-92
2021/06/17 04:09:46;;;;;;;20.95;12.73;;;;;;;17.35;79.39;98875.13;5087934;28;20060;-92
2021/06/17 04:12:15;;;;;;;30.73;14.00;;;;;;;17.39;78.87;98873.13;5095086;28;20401;-93
2021/06/17 04:14:44;;;;;;;32.95;16.63;;;;;;;17.55;77.59;98898.25;5089422;28;20067;-93
2021/06/17 04:17:16;;;;;;;45.10;20.63;;;;;;;17.66;76.33;98909.31;5091496;28;20032;-93
2021/06/17 04:19:44;;;;;;;38.40;16.67;;;;;;;17.71;75.48;98914.44;5089097;28;20048;-93
2021/06/17 04:22:12;;;;;;;46.83;22.75;;;;;;;17.53;75.25;98877.78;5088774;28;20044;-93
2021/06/17 04:24:42;;;;;;;24.30;13.33;;;;;;;17.75;77.38;98912.47;5094601;28;20051;-93
2021/06/17 04:27:08;;;;;;;23.23;13.90;;;;;;;17.78;78.06;98910.47;5087605;28;20282;-94
2021/06/17 04:29:38;;;;;;;23.20;13.00;;;;;;;17.77;78.16;98902.47;5092593;28;20138;-93
2021/06/17 04:32:05;;;;;;;20.73;12.27;;;;;;;17.79;78.33;98898.75;5084390;28;20043;-93
2021/06/17 04:34:34;;;;;;;23.38;13.15;;;;;;;17.95;77.96;98914.09;5088474;28;20055;-93
2021/06/17 04:37:01;;;;;;;28.42;14.35;;;;;;;17.98;75.86;98908.56;5087844;28;20051;-94
2021/06/17 04:39:27;;;;;;;14.63;9.65;;;;;;;18.18;73.25;98928.97;5089107;28;20097;-94
2021/06/17 04:41:54;;;;;;;17.15;9.65;;;;;;;18.27;73.08;98940.06;5087320;28;20032;-93
2021/06/17 04:44:21;;;;;;;14.75;8.40;;;;;;;18.26;71.61;98924.91;5082117;28;20071;-93
2021/06/17 04:46:47;;;;;;;16.48;8.63;;;;;;;18.47;72.19;98946.16;5083843;28;20033;-93
2021/06/17 04:49:15;;;;;;;13.73;8.77;;;;;;;18.51;71.10;98946.88;5095568;28;20044;-93
2021/06/17 04:51:44;;;;;;;17.58;8.93;;;;;;;18.86;70.44;98958.34;5087335;28;20045;-93
2021/06/17 04:54:18;;;;;;;17.47;9.10;;;;;;;18.92;68.64;98940.97;5087104;28;20043;-92
2021/06/17 04:56:44;;;;;;;13.82;8.73;;;;;;;19.04;68.54;98943.81;5093058;28;20135;-93
2021/06/17 04:59:10;;;;;;;16.85;9.00;;;;;;;19.05;68.79;98964.41;5091769;28;20060;-93
2021/06/17 05:01:40;;;;;;;15.35;9.68;;;;;;;19.09;68.69;98949.78;5083350;28;20067;-93
2021/06/17 05:04:05;;;;;;;15.32;8.43;;;;;;;19.56;67.77;98973.97;5085489;28;20396;-93
2021/06/17 05:06:34;;;;;;;19.77;9.65;;;;;;;20.20;65.70;98961.94;5090928;28;20044;-93
2021/06/17 05:12:00;;;;;;;16.55;9.07;;;;;;;20.01;65.49;98972.16;5148934;27;20128;-93
2021/06/17 05:14:26;;;;;;;17.00;9.80;;;;;;;20.01;66.00;98975.72;5132513;27;20500;-90
2021/06/17 05:16:52;;;;;;;15.88;9.60;;;;;;;20.07;65.35;98964.53;5131804;27;20045;-94
2021/06/17 05:19:18;;;;;;;14.40;9.15;;;;;;;20.18;65.46;98976.50;5132829;27;20042;-93
2021/06/17 05:21:44;;;;;;;17.35;9.60;;;;;;;20.10;65.05;98971.56;5133003;27;20044;-93
2021/06/17 05:24:10;;;;;;;16.55;9.73;;;;;;;20.21;64.94;98966.38;5132675;27;20039;-92
2021/06/17 05:26:36;;;;;;;14.95;9.60;;;;;;;;;;5132394;27;20041;-90
2021/06/17 05:29:04;;;;;;;15.18;9.25;;;;;;;20.84;63.27;98989.38;5132396;27;20122;-94
2021/06/17 05:31:30;;;;;;;17.60;9.82;;;;;;;21.58;61.45;98986.25;5131181;27;20396;-92
2021/06/17 05:33:56;;;;;;;19.40;10.18;;;;;;;22.12;59.08;98965.28;5131978;27;20054;-93
2021/06/17 05:36:22;;;;;;;17.17;9.50;;;;;;;22.55;58.16;98973.06;5132332;27;20055;-94
2021/06/17 05:38:51;;;;;;;16.35;9.77;;;;;;;22.84;57.43;98988.16;5132474;27;20039;-94
2021/06/17 05:41:16;;;;;;;17.70;10.18;;;;;;;23.02;56.43;98970.53;5132629;27;20048;-93
2021/06/17 05:43:42;;;;;;;17.50;10.15;;;;;;;22.97;56.84;98987.13;5132127;27;20125;-93
2021/06/17 05:46:09;;;;;;;18.65;9.90;;;;;;;22.73;57.63;98987.09;5131405;27;20122;-93
2021/06/17 05:48:36;;;;;;;18.42;10.52;;;;;;;22.75;57.63;98995.97;5131970;27;20096;-92
2021/06/17 05:51:02;;;;;;;18.02;10.90;;;;;;;22.95;57.58;98996.34;5131999;27;20039;-93
2021/06/17 05:53:28;;;;;;;17.35;9.77;;;;;;;22.86;57.43;98987.06;5131968;27;20039;-94
2021/06/17 05:55:54;;;;;;;13.45;8.63;;;;;;;23.02;57.13;99002.22;5131763;27;20036;-94
2021/06/17 05:58:20;;;;;;;13.73;8.77;;;;;;;22.73;57.50;98991.66;5131972;27;20051;-93
2021/06/17 06:00:45;;;;;;;14.57;9.27;;;;;;;23.05;56.86;99010.13;5130113;27;20036;-94
2021/06/17 06:03:13;;;;;;;14.27;9.10;;;;;;;23.35;56.34;99025.94;5132062;27;20039;-93
2021/06/17 06:05:39;;;;;;;16.02;9.30;;;;;;;23.51;56.25;99025.66;5132150;27;20067;-94
2021/06/17 06:11:04;;;;;;;17.65;8.70;;;;;;;23.59;55.47;99028.63;5080702;28;20132;-91
2021/06/17 06:13:31;;;;;;;19.17;9.95;;;;;;;23.50;55.32;99013.03;5047966;28;20481;-93
2021/06/17 06:15:57;;;;;;;18.10;9.85;;;;;;;23.35;56.55;99031.34;5081476;27;20049;-93
2021/06/17 06:21:22;;;;;;;18.98;10.30;;;;;;;22.90;58.41;99031.06;5143810;27;20135;-91
2021/06/17 06:23:50;;;;;;;18.60;10.20;;;;;;;22.99;58.50;99030.41;5112698;28;20658;-93
2021/06/17 06:26:16;;;;;;;;;;;;;;;23.27;59.11;99036.50;5113241;28;20040;-92
2021/06/17 06:28:42;;;;;;;20.38;11.80;;;;;;;22.84;59.68;99036.97;5112638;28;19920;-93
2021/06/17 06:31:07;;;;;;;20.90;11.40;;;;;;;22.26;61.98;99037.47;5111536;28;20043;-91
2021/06/17 06:33:33;;;;;;;19.17;11.50;;;;;;;22.68;60.97;99026.34;5112341;28;20031;-92
2021/06/17 06:35:59;;;;;;;18.92;10.55;;;;;;;23.10;59.29;99016.06;5112446;28;20048;-92
2021/06/17 06:38:26;;;;;;;20.80;11.25;;;;;;;23.51;57.47;99040.09;5112450;28;20038;-92
2021/06/17 06:40:52;;;;;;;20.98;10.85;;;;;;;23.63;57.29;99040.13;5111531;28;20385;-93
2021/06/17 06:43:18;;;;;;;19.90;10.73;;;;;;;23.78;55.82;99041.69;5111806;28;20078;-93
2021/06/17 06:45:46;;;;;;;19.88;10.93;;;;;;;23.77;55.65;99020.97;5112807;28;20040;-93
2021/06/17 06:48:12;;;;;;;19.20;11.67;;;;;;;24.03;55.60;99035.22;5112704;28;20535;-94
2021/06/17 06:50:38;;;;;;;16.45;11.18;;;;;;;24.30;55.94;99047.59;5112435;28;20288;-93
2021/06/17 06:53:05;;;;;;;19.98;11.73;;;;;;;24.15;55.65;99036.09;5112595;28;20046;-92
2021/06/17 06:55:32;;;;;;;19.20;11.32;;;;;;;24.38;55.92;99035.13;5112493;28;20046;-91
2021/06/17 06:57:58;;;;;;;19.55;11.38;;;;;;;24.61;55.33;99027.00;5111920;28;20559;-92
2021/06/17 07:00:24;;;;;;;20.98;12.18;;;;;;;24.71;55.23;99033.44;5111259;28;20047;-94
2021/06/17 07:02:50;;;;;;;21.38;12.18;;;;;;;24.76;55.48;99036.63;5112014;28;20131;-93
2021/06/17 07:05:16;;;;;;;19.30;12.05;;;;;;;24.81;55.61;99022.69;5111418;28;20127;-93
2021/06/17 07:07:42;;;;;;;19.67;12.02;;;;;;;24.90;55.42;99037.38;5111532;28;20044;-93
2021/06/17 07:10:09;;;;;;;16.67;11.63;;;;;;;24.66;56.18;99035.69;5110723;28;20104;-93
2021/06/17 07:12:36;;;;;;;21.77;12.45;;;;;;;24.92;55.74;99041.72;5111045;28;20036;-94
2021/06/17 07:15:03;;;;;;;19.88;11.55;;;;;;;25.18;54.64;99025.94;5110742;28;20093;-93
2021/06/17 07:17:29;;;;;;;22.15;12.55;;;;;;;25.48;54.25;99038.00;5111079;28;20505;-93
2021/06/17 07:19:55;;;;;;;22.25;11.65;;;;;;;25.62;53.26;99037.69;5110100;28;20104;-93
2021/06/17 07:22:21;;;;;;;25.33;13.32;;;;;;;25.58;53.77;99049.84;5110513;28;20085;-94
2021/06/17 07:24:47;;;;;;;19.58;12.27;;;;;;;25.79;53.38;99029.94;5111869;28;20066;-93
2021/06/17 07:27:13;;;;;;;18.17;12.68;;;;;;;25.86;53.46;99035.72;5110201;28;20040;-92
2021/06/17 07:29:40;;;;;;;21.83;12.13;;;;;;;25.96;52.91;99036.69;5112426;28;20040;-92
2021/06/17 07:32:08;;;;;;;20.33;12.38;;;;;;;25.87;53.14;99021.94;5101442;28;20044;-93
2021/06/17 07:34:34;;;;;;;21.33;12.80;;;;;;;25.67;53.88;99048.19;5100027;28;20036;-93
2021/06/17 07:37:00;;;;;;;22.08;13.63;;;;;;;25.71;54.10;99016.13;5095067;28;20888;-92
2021/06/17 07:39:26;;;;;;;23.63;13.73;;;;;;;25.96;52.96;99026.66;5101620;28;20043;-94
2021/06/17 07:41:52;;;;;;;23.00;14.45;;;;;;;25.80;53.79;99018.91;5097085;28;20067;-94
2021/06/17 07:44:18;;;;;;;22.35;13.63;;;;;;;25.61;54.58;99008.75;5098977;28;20075;-92
2021/06/17 07:46:46;;;;;;;21.58;13.10;;;;;;;25.98;53.66;99010.16;5100217;28;20044;-93
2021/06/17 07:49:12;;;;;;;19.53;12.87;;;;;;;25.69;55.30;99012.66;5097808;28;20145;-94
2021/06/17 07:51:38;;;;;;;21.90;14.18;;;;;;;25.28;55.60;99000.69;5096261;28;20113;-93
2021/06/17 07:54:04;;;;;;;21.10;13.05;;;;;;;25.78;55.05;98993.66;5099355;28;20123;-92
2021/06/17 07:56:31;;;;;;;22.05;13.75;;;;;;;26.29;53.58;98991.13;5101576;28;20047;-93
2021/06/17 07:58:58;;;;;;;21.85;13.38;;;;;;;26.76;52.57;99008.72;5097212;28;20122;-93
2021/06/17 08:01:25;;;;;;;21.77;15.30;;;;;;;27.09;51.76;99014.84;5096205;28;20052;-93
2021/06/17 08:03:53;;;;;;;25.45;14.48;;;;;;;27.01;51.62;99001.88;5097688;28;20066;-95
2021/06/17 08:06:20;;;;;;;25.37;15.17;;;;;;;26.77;52.12;98999.53;5097897;28;20044;-92
2021/06/17 08:08:45;;;;;;;20.40;13.88;;;;;;;26.88;51.42;98986.78;5096135;28;20097;-93
2021/06/17 08:11:12;;;;;;;23.33;13.30;;;;;;;26.92;51.48;98985.50;5095761;28;20040;-92
2021/06/17 08:13:38;;;;;;;21.85;13.50;;;;;;;26.91;51.90;98990.06;5102260;28;20126;-95
2021/06/17 08:16:04;;;;;;;23.33;14.55;;;;;;;27.12;51.15;98970.88;5096104;28;20044;-93
2021/06/17 08:18:30;;;;;;;25.48;15.35;;;;;;;26.63;52.30;98981.69;5097305;28;20059;-93
2021/06/17 08:21:01;;;;;;;21.75;14.18;;;;;;;26.71;52.75;98994.63;5095797;28;20044;-93
2021/06/17 08:23:27;;;;;;;21.13;13.18;;;;;;;27.08;51.85;98988.53;5095651;28;20032;-93
2021/06/17 08:25:54;;;;;;;24.85;14.15;;;;;;;27.39;51.04;98982.97;5100410;28;20047;-92
2021/06/17 08:28:24;;;;;;;21.45;14.10;;;;;;;27.61;50.05;98960.84;5096603;28;20040;-93
2021/06/17 08:30:51;;;;;;;20.77;13.88;;;;;;;27.83;49.69;98954.19;5099239;28;20040;-92
2021/06/17 08:33:17;;;;;;;20.80;13.10;;;;;;;28.08;48.51;98945.53;5099483;28;20032;-94
2021/06/17 08:35:42;;;;;;;20.80;13.48;;;;;;;27.97;48.84;98980.22;5098449;28;20062;-92
2021/06/17 08:38:10;;;;;;;19.75;12.82;;;;;;;28.15;48.59;98969.41;5086634;28;20044;-93
2021/06/17 08:40:36;;;;;;;20.25;13.38;;;;;;;28.47;47.40;98962.66;5093233;28;20127;-93
2021/06/17 08:43:04;;;;;;;19.27;13.65;;;;;;;28.33;48.00;98961.28;5095005;28;20032;-93
2021/06/17 08:45:30;;;;;;;22.63;14.18;;;;;;;28.37;47.65;98957.22;5098738;28;20083;-94
2021/06/17 08:47:56;;;;;;;18.30;14.10;;;;;;;27.91;48.29;98974.47;5095201;28;20101;-93
2021/06/17 08:50:22;;;;;;;22.45;14.35;;;;;;;27.44;50.55;98967.91;5094826;28;20809;-93
2021/06/17 08:52:48;;;;;;;20.13;13.23;;;;;;;27.76;49.41;98960.38;5093447;28;20135;-94
2021/06/17 08:55:20;;;;;;;22.83;13.63;;;;;;;27.59;49.95;98957.41;5094749;28;20119;-93
2021/06/17 08:57:49;;;;;;;20.55;14.65;;;;;;;28.06;47.95;98951.13;5090882;28;20075;-94
2021/06/17 09:00:41;;;;;;;19.48;12.93;;;;;;;28.50;47.90;98956.91;5092711;28;20040;-91
2021/06/17 09:03:17;;;;;;;20.88;13.80;;;;;;;27.14;50.35;98949.75;5086804;28;20047;-92
2021/06/17 09:05:44;;;;;;;19.25;13.90;;;;;;;27.68;49.65;98954.81;5093261;28;20101;-93
2021/06/17 09:08:27;;;;;;;21.85;13.93;;;;;;;28.17;48.27;98933.69;5096017;28;20562;-93
2021/06/17 09:10:57;;;;;;;20.70;12.95;;;;;;;28.44;47.49;98936.47;5090537;28;20036;-94
2021/06/17 09:13:28;;;;;;;18.20;13.32;;;;;;;28.62;46.42;98927.47;5099362;28;20078;-94
2021/06/17 09:15:55;;;;;;;20.75;13.13;;;;;;;28.51;46.96;98942.22;5096667;28;20071;-93
2021/06/17 09:18:23;;;;;;;21.48;13.77;;;;;;;28.81;46.31;98923.75;5095697;28;20047;-92
2021/06/17 09:20:56;;;;;;;18.05;12.55;;;;;;;29.16;45.52;98938.53;5095896;28;20047;-94
2021/06/17 09:23:30;;;;;;;20.63;13.45;;;;;;;28.95;45.43;98960.69;5096508;28;20040;-95
2021/06/17 09:26:01;;;;;;;18.90;13.18;;;;;;;28.77;45.58;98958.78;5095618;28;20051;-94
2021/06/17 09:28:45;;;;;;;20.30;13.48;;;;;;;28.88;45.09;98941.28;5096972;28;20071;-93
2021/06/17 09:31:15;;;;;;;18.35;13.77;;;;;;;27.70;48.15;98955.53;5092829;28;20042;-92
2021/06/17 09:33:41;;;;;;;20.83;13.93;;;;;;;28.03;47.15;98949.56;5094454;28;20453;-92
2021/06/17 09:36:07;;;;;;;19.33;12.63;;;;;;;28.50;46.67;98931.41;5095934;28;20044;-94
2021/06/17 09:38:44;;;;;;;16.70;12.02;;;;;;;29.05;45.62;98925.91;5094139;28;20042;-94
2021/06/17 09:41:27;;;;;;;17.02;12.82;;;;;;;29.39;43.45;98922.50;5093035;28;20050;-94
2021/06/17 09:43:56;;;;;;;18.92;12.88;;;;;;;29.46;42.43;98923.56;5097117;28;20392;-95
2021/06/17 09:46:25;;;;;;;17.95;12.18;;;;;;;29.63;41.83;98911.72;5095407;28;20123;-93
2021/06/17 09:48:54;;;;;;;19.15;12.23;;;;;;;29.81;41.75;98913.59;5098019;28;20097;-95
2021/06/17 09:51:25;;;;;;;19.85;13.10;;;;;;;29.79;41.83;98932.94;5095953;28;20068;-94
2021/06/17 09:54:10;;;;;;;19.25;12.32;;;;;;;29.92;41.68;98943.47;5095378;28;20089;-95
2021/06/17 09:56:40;;;;;;;16.40;11.82;;;;;;;29.88;40.54;98931.09;5097121;28;20392;-95
2021/06/17 09:59:10;;;;;;;18.55;12.40;;;;;;;29.15;42.27;98939.53;5090268;28;20050;-92
2021/06/17 10:01:42;;;;;;;17.70;12.60;;;;;;;29.30;42.65;98921.56;5087967;28;20123;-93
2021/06/17 10:04:10;;;;;;;18.90;12.93;;;;;;;29.61;41.57;98912.91;5094632;28;20123;-89
2021/06/17 10:06:37;;;;;;;16.15;12.57;;;;;;;29.74;41.30;98935.28;5094830;28;20560;-95
2021/06/17 10:09:08;;;;;;;20.05;11.75;;;;;;;29.67;40.97;98932.31;5087527;28;20068;-94
2021/06/17 10:11:41;;;;;;;18.60;12.38;;;;;;;29.53;40.91;98910.09;5095844;28;20414;-95
2021/06/17 10:14:11;;;;;;;19.98;11.77;;;;;;;29.76;41.41;98922.28;5094911;28;20131;-92
2021/06/17 10:16:39;;;;;;;16.35;12.68;;;;;;;29.73;41.24;98929.97;5094459;28;20098;-91
2021/06/17 10:19:06;;;;;;;18.27;11.90;;;;;;;29.87;39.05;98934.88;5090989;28;20527;-92
2021/06/17 10:21:33;;;;;;;16.83;11.07;;;;;;;29.60;40.03;98912.06;5094271;28;20468;-93
2021/06/17 10:23:59;;;;;;;17.90;11.77;;;;;;;29.61;39.86;98905.53;5094412;28;20072;-92
2021/06/17 10:26:29;;;;;;;16.50;11.63;;;;;;;29.86;40.04;98906.63;5094287;28;20043;-89
2021/06/17 10:28:58;;;;;;;16.27;11.15;;;;;;;30.20;39.18;98916.72;5095163;28;20059;-90
2021/06/17 10:31:45;;;;;;;14.60;11.00;;;;;;;30.51;38.30;98913.47;5092941;28;20032;-93
2021/06/17 10:34:37;;;;;;;14.38;10.68;;;;;;;30.73;37.73;98902.91;5081825;28;20094;-91
2021/06/17 10:37:09;;;;;;;16.08;11.52;;;;;;;30.01;39.00;98887.66;5092737;28;20040;-91
2021/06/17 10:39:37;;;;;;;16.40;11.18;;;;;;;30.15;38.21;98901.81;5096276;28;20389;-94
2021/06/17 10:42:16;;;;;;;18.02;10.70;;;;;;;30.35;37.53;98888.72;5097425;28;20081;-91
2021/06/17 10:44:46;;;;;;;16.45;10.73;;;;;;;30.07;37.14;98873.28;5093266;28;20048;-91
2021/06/17 10:48:01;;;;;;;15.45;10.32;;;;;;;30.16;34.92;98887.91;5089207;28;20055;-92
2021/06/17 10:50:32;;;;;;;15.93;9.45;;;;;;;29.91;34.97;98889.66;5097460;28;20091;-92
2021/06/17 10:53:28;;;;;;;13.93;9.20;;;;;;;30.08;35.45;98890.63;5094738;28;20044;-92
2021/06/17 10:56:02;;;;;;;14.70;10.73;;;;;;;29.87;37.05;98875.41;5089942;28;20051;-94
2021/06/17 10:59:04;;;;;;;16.48;10.50;;;;;;;29.87;36.95;98891.88;5095470;28;20040;-92
2021/06/17 11:01:44;;;;;;;19.13;10.13;;;;;;;29.41;37.44;98877.47;5092022;28;20036;-91
2021/06/17 11:04:37;;;;;;;17.75;10.85;;;;;;;29.90;37.20;98875.06;5091137;28;20036;-90
2021/06/17 11:07:14;;;;;;;13.52;10.02;;;;;;;29.94;37.80;98878.38;5092640;28;20135;-91
2021/06/17 11:09:58;;;;;;;16.55;10.48;;;;;;;30.44;36.40;98877.59;5095655;28;20032;-90
2021/06/17 11:12:58;;;;;;;15.52;9.80;;;;;;;30.74;35.23;98872.56;5092407;28;20130;-90
2021/06/17 11:15:42;;;;;;;15.50;10.18;;;;;;;30.16;34.69;98871.44;5093099;28;20047;-90
2021/06/17 11:18:10;;;;;;;16.60;11.23;;;;;;;30.22;35.99;98876.28;5090436;28;20040;-90
2021/06/17 11:20:41;;;;;;;13.20;10.75;;;;;;;30.41;36.67;98866.13;5094212;28;20044;-92
2021/06/17 11:23:08;;;;;;;16.02;10.48;;;;;;;30.72;37.00;98863.63;5094290;28;20040;-93
2021/06/17 11:25:38;;;;;;;19.30;11.15;;;;;;;30.93;35.34;98835.72;5096751;28;20044;-93
2021/06/17 11:28:06;;;;;;;15.80;10.40;;;;;;;30.24;34.90;98856.94;5093777;28;20036;-92
2021/06/17 11:31:00;;;;;;;15.32;10.07;;;;;;;30.84;32.97;98855.91;5093680;28;20039;-92
2021/06/17 11:33:43;;;;;;;17.13;10.52;;;;;;;30.79;33.34;98858.31;5080940;28;20783;-94
2021/06/17 11:36:12;;;;;;;13.55;10.32;;;;;;;31.03;35.00;98832.81;5097225;28;20366;-95
2021/06/17 11:38:39;;;;;;;15.50;9.93;;;;;;;31.39;33.16;98833.31;5098432;28;20093;-93